Time;durP1;ratioP1;P1;durP2;ratioP2;P2;SDS_P1;SDS_P2;PMS_P1;PMS_P2;Temp;Humidity;BMP_temperature;BMP_pressure;BME280_temperature;BME280_humidity;BME280_pressure;Samples;Min_cycle;Max_cycle;Signal;HPM_P1;HPM_P2
2023/08/14 00:04:35;;;;;;;;;;;19.10;93.00;;;18.08;86.99;100536.84;9855431;29;96744;-89
2023/08/14 00:09:39;;;;;;;;;;;19.00;93.40;;;18.04;86.33;100536.44;9856530;29;96604;-90
2023/08/14 00:14:43;;;;;;;;;;;19.00;92.70;;;17.99;87.42;100533.53;9845569;29;97796;-90
2023/08/14 00:19:47;;;;;;;;;;;19.00;93.40;;;17.97;87.11;100534.78;9866831;29;96781;-91
2023/08/14 00:24:51;;;;;;;;;;;18.90;92.90;;;17.92;87.82;100538.91;9879417;29;96635;-90
2023/08/14 00:29:54;;;;;;;;;;;18.90;93.80;;;17.84;88.02;100536.44;9898975;29;96635;-90
2023/08/14 00:34:58;;;;;;;;;;;18.90;93.70;;;17.78;88.56;100529.22;9854842;29;96710;-89
2023/08/14 00:40:03;;;;;;;;;;;18.80;94.30;;;17.70;89.89;100537.47;9866855;29;97322;-89
2023/08/14 00:45:07;;;;;;;;;;;18.70;94.70;;;17.63;90.37;100539.28;9865064;29;96755;-90
2023/08/14 00:50:11;;;;;;;;;;;18.60;95.00;;;17.52;90.55;100542.63;9856962;29;96654;-91
2023/08/14 00:55:21;;;;;;;;;;;18.50;95.70;;;17.46;90.93;100551.50;9864299;29;96854;-90
2023/08/14 01:00:28;;;;;;;;;;;18.40;95.70;;;17.44;91.06;100557.03;9889669;29;98604;-90
2023/08/14 01:05:32;;;;;;;;;;;18.40;96.00;;;17.39;90.93;100555.00;9921056;29;96584;-89
2023/08/14 01:10:54;;;;;;;;;;;18.40;96.20;;;17.38;91.43;100558.69;9907354;29;96715;-90
2023/08/14 01:16:01;;;;;;;;;;;18.30;96.20;;;17.34;90.42;100557.47;9894945;29;96779;-89
2023/08/14 01:21:13;;;;;;;;;;;18.30;96.00;;;17.31;89.94;100552.47;9880535;29;96611;-91
2023/08/14 01:26:17;;;;;;;;;;;18.30;96.00;;;17.15;90.47;100536.72;9879958;29;97209;-90
2023/08/14 01:31:20;;;;;;;;;;;18.20;96.10;;;17.14;90.75;100540.44;9860917;29;96611;-90
2023/08/14 01:36:37;;;;;;;;;;;18.20;96.50;;;17.10;92.04;100552.63;9848280;29;97045;-91
2023/08/14 01:41:41;;;;;;;;;;;18.10;97.00;;;17.02;93.01;100556.31;9870751;29;97606;-91
2023/08/14 01:46:47;;;;;;;;;;;18.00;97.60;;;16.92;93.16;100549.69;9884870;29;96794;-91
2023/08/14 01:51:52;;;;;;;;;;;17.90;97.80;;;16.84;93.23;100548.81;9908826;29;96743;-90
2023/08/14 01:56:57;;;;;;;;;;;17.90;97.80;;;16.77;93.62;100553.31;9879884;29;96842;-90
2023/08/14 02:02:00;;;;;;;;;;;17.80;97.80;;;16.83;93.96;100567.81;9883645;29;96713;-90
2023/08/14 02:07:05;;;;;;;;;;;17.80;98.40;;;16.76;94.35;100556.22;9912001;29;96809;-91
2023/08/14 02:12:09;;;;;;;;;;;17.80;98.60;;;16.73;94.58;100559.28;9901024;29;98332;-90
2023/08/14 02:17:12;;;;;;;;;;;17.80;98.60;;;16.62;94.66;100565.22;9869784;29;96634;-90
2023/08/14 02:22:16;;;;;;;;;;;17.70;99.50;;;16.56;96.24;100577.56;9849189;29;96612;-90
2023/08/14 02:27:20;;;;;;;;;;;17.50;99.70;;;16.52;96.70;100560.19;9886426;29;96630;-90
2023/08/14 02:32:23;;;;;;;;;;;17.50;99.70;;;16.53;96.48;100562.66;9881373;29;97883;-89
2023/08/14 02:37:27;;;;;;;;;;;17.50;99.90;;;16.44;97.20;100555.00;9869547;29;98481;-89
2023/08/14 02:42:31;;;;;;;;;;;17.50;99.90;;;16.46;96.95;100569.84;9880025;29;96658;-89
2023/08/14 02:47:34;;;;;;;;;;;17.40;99.90;;;16.45;97.04;100564.69;9885064;29;97040;-89
2023/08/14 02:52:37;;;;;;;;;;;17.50;99.90;;;16.38;97.22;100569.19;9905553;29;96665;-90
2023/08/14 02:57:41;;;;;;;;;;;17.40;99.90;;;16.31;97.88;100571.81;9881354;29;96720;-90
2023/08/14 03:02:46;;;;;;;;;;;17.30;99.90;;;16.25;97.88;100565.41;9883692;29;96578;-89
2023/08/14 03:07:50;;;;;;;;;;;17.30;99.90;;;16.21;98.07;100564.13;9886904;29;96666;-89
2023/08/14 03:12:53;;;;;;;;;;;17.30;99.90;;;16.17;98.44;100575.44;9867363;29;97363;-90
2023/08/14 03:17:57;;;;;;;;;;;17.20;99.90;;;16.10;98.88;100574.56;9874295;29;97958;-90
2023/08/14 03:23:00;;;;;;;;;;;17.20;99.90;;;16.07;99.23;100581.13;9867443;29;96643;-90
2023/08/14 03:28:04;;;;;;;;;;;17.10;99.90;;;16.00;100.00;100588.28;9883165;29;96597;-90
2023/08/14 03:33:08;;;;;;;;;;;17.00;99.90;;;15.88;100.00;100571.06;9882209;29;97456;-90
2023/08/14 03:38:11;;;;;;;;;;;17.00;99.90;;;15.91;100.00;100589.47;9850758;29;97097;-90
2023/08/14 03:43:15;;;;;;;;;;;16.90;99.90;;;15.76;100.00;100589.50;9850451;29;97774;-91
2023/08/14 03:48:18;;;;;;;;;;;16.90;99.90;;;15.75;100.00;100591.38;9881790;29;96702;-91
2023/08/14 03:53:22;;;;;;;;;;;16.90;99.90;;;15.86;100.00;100602.59;9882607;29;99183;-91
2023/08/14 03:58:25;;;;;;;;;;;16.90;99.90;;;15.89;100.00;100605.72;9847671;29;98745;-90
2023/08/14 04:03:30;;;;;;;;;;;16.90;99.90;;;15.92;100.00;100605.34;9881342;29;97651;-90
2023/08/14 04:08:34;;;;;;;;;;;17.00;99.90;;;16.02;100.00;100613.88;9881071;29;96696;-90
2023/08/14 04:13:37;;;;;;;;;;;17.10;99.90;;;16.04;100.00;100611.84;9897890;29;96765;-89
2023/08/14 04:18:41;;;;;;;;;;;17.10;99.90;;;16.12;100.00;100616.22;9866600;29;96756;-90
2023/08/14 04:23:45;;;;;;;;;;;17.20;99.90;;;16.22;100.00;100631.97;9872416;29;98988;-87
2023/08/14 04:28:49;;;;;;;;;;;17.30;99.90;;;16.32;100.00;100627.13;9873025;29;96890;-86
2023/08/14 04:33:52;;;;;;;;;;;17.30;99.90;;;16.43;100.00;100615.00;9897093;29;98435;-86
2023/08/14 04:38:55;;;;;;;;;;;17.40;99.90;;;16.56;100.00;100612.44;9874113;29;96972;-86
2023/08/14 04:43:59;;;;;;;;;;;17.60;99.90;;;16.74;100.00;100628.06;9860115;29;96937;-86
2023/08/14 04:49:03;;;;;;;;;;;17.70;99.90;;;16.87;100.00;100624.59;9879251;29;96700;-86
2023/08/14 04:54:07;;;;;;;;;;;17.90;99.90;;;17.04;100.00;100615.19;9881527;29;96791;-86
2023/08/14 04:59:10;;;;;;;;;;;18.10;99.90;;;17.25;100.00;100622.28;9881030;29;96640;-86
2023/08/14 05:04:13;;;;;;;;;;;18.30;99.90;;;17.42;100.00;100622.78;9861856;29;97422;-86
2023/08/14 05:09:17;;;;;;;;;;;18.40;99.90;;;17.59;100.00;100624.06;9890864;29;97219;-86
2023/08/14 05:14:29;;;;;;;;;;;18.60;99.90;;;17.78;100.00;100625.97;9852014;29;97895;-85
2023/08/14 05:19:33;;;;;;;;;;;18.80;99.90;;;18.05;100.00;100631.38;9875307;29;97056;-85
2023/08/14 05:24:36;;;;;;;;;;;19.00;99.90;;;18.25;100.00;100626.00;9892496;29;96714;-87
2023/08/14 05:29:40;;;;;;;;;;;19.30;99.90;;;18.50;99.68;100623.50;9876285;29;96776;-87
2023/08/14 05:34:43;;;;;;;;;;;19.60;99.90;;;18.82;98.48;100635.25;9859198;29;96718;-87
2023/08/14 05:39:47;;;;;;;;;;;19.80;99.90;;;19.09;96.37;100638.72;9895174;29;96551;-88
2023/08/14 05:44:50;;;;;;;;;;;20.10;99.90;;;19.35;90.44;100635.88;9879059;29;97171;-88
2023/08/14 05:49:54;;;;;;;;;;;20.40;99.90;;;19.61;88.90;100639.50;9841812;29;97567;-88
2023/08/14 05:54:57;;;;;;;;;;;20.70;99.90;;;19.85;86.57;100641.47;9878669;29;96725;-88
2023/08/14 06:00:03;;;;;;;;;;;20.90;99.90;;;20.00;84.35;100639.25;9876492;29;96627;-88
2023/08/14 06:05:08;;;;;;;;;;;21.10;99.60;;;20.21;82.76;100635.38;9859971;29;96890;-87
2023/08/14 06:10:11;;;;;;;;;;;21.20;99.10;;;20.43;82.25;100643.06;9882153;29;96681;-87
2023/08/14 06:15:16;;;;;;;;;;;21.40;98.80;;;20.63;80.16;100637.50;9894754;29;100838;-88
2023/08/14 06:20:20;;;;;;;;;;;21.60;98.10;;;20.85;79.80;100649.50;9865734;29;96585;-87
2023/08/14 06:25:25;;;;;;;;;;;21.90;97.90;;;21.05;78.61;100647.44;9899807;29;96756;-87
2023/08/14 06:30:29;;;;;;;;;;;22.10;97.60;;;21.24;77.63;100650.94;9900506;29;98395;-87
2023/08/14 06:35:33;;;;;;;;;;;22.30;97.10;;;21.45;76.46;100652.34;9884157;29;98344;-86
2023/08/14 06:40:36;;;;;;;;;;;22.50;96.80;;;21.65;75.38;100652.06;9887130;29;96636;-87
2023/08/14 06:45:40;;;;;;;;;;;22.70;96.30;;;21.79;74.50;100645.44;9858500;29;98392;-86
2023/08/14 06:50:43;;;;;;;;;;;22.90;96.00;;;22.01;73.84;100655.72;9880282;29;98157;-86
2023/08/14 06:55:47;;;;;;;;;;;23.10;95.60;;;22.17;74.21;100647.78;9881003;29;96772;-85
2023/08/14 07:00:50;;;;;;;;;;;23.20;95.70;;;22.37;73.65;100650.19;9885144;29;96601;-85
2023/08/14 07:05:54;;;;;;;;;;;23.40;95.40;;;22.59;72.83;100655.81;9884859;29;96690;-85
2023/08/14 07:10:58;;;;;;;;;;;23.70;95.60;;;22.81;71.93;100641.69;9874539;29;96516;-86
2023/08/14 07:16:02;;;;;;;;;;;23.90;95.20;;;23.04;70.60;100655.22;9861278;29;96747;-85
2023/08/14 07:21:07;;;;;;;;;;;24.10;94.60;;;23.29;69.96;100660.34;9899173;29;97226;-85
2023/08/14 07:26:15;;;;;;;;;;;24.40;94.10;;;23.52;70.55;100654.00;9884161;29;96612;-84
2023/08/14 07:31:18;;;;;;;;;;;24.50;94.20;;;23.75;68.04;100645.78;9881356;29;98004;-86
2023/08/14 07:36:22;;;;;;;;;;;24.80;93.60;;;23.95;65.46;100639.91;9884085;29;96678;-85
2023/08/14 07:41:25;;;;;;;;;;;25.10;92.80;;;24.19;64.66;100648.72;9868194;29;96676;-85
2023/08/14 07:46:29;;;;;;;;;;;25.20;92.40;;;24.33;62.08;100643.75;9896400;29;96768;-85
2023/08/14 07:51:32;;;;;;;;;;;25.40;91.40;;;24.54;60.75;100650.38;9879808;29;97407;-85
2023/08/14 07:56:36;;;;;;;;;;;25.60;90.60;;;24.67;58.93;100644.56;9887487;29;96698;-85
2023/08/14 08:01:41;;;;;;;;;;;25.70;89.40;;;24.86;57.92;100638.84;9862982;29;97822;-85
2023/08/14 08:06:44;;;;;;;;;;;25.80;89.10;;;25.03;57.22;100628.75;9848322;29;96757;-86
2023/08/14 08:11:48;;;;;;;;;;;26.10;86.80;;;25.25;57.17;100632.31;9882443;29;97773;-85
2023/08/14 08:16:52;;;;;;;;;;;26.30;87.20;;;25.51;56.97;100629.88;9881821;29;96586;-85
2023/08/14 08:21:56;;;;;;;;;;;26.50;86.50;;;25.73;59.62;100632.50;9880171;29;96676;-85
2023/08/14 08:26:59;;;;;;;;;;;26.80;83.10;;;25.88;54.71;100629.97;9881563;29;96776;-85
2023/08/14 08:32:04;;;;;;;;;;;26.90;83.20;;;25.95;52.58;100637.94;9881163;29;97967;-84
2023/08/14 08:37:07;;;;;;;;;;;27.00;83.20;;;26.15;52.21;100640.84;9850540;29;97556;-85
2023/08/14 08:42:11;;;;;;;;;;;27.20;79.50;;;26.25;51.54;100635.47;9899325;29;96864;-85
2023/08/14 08:47:16;;;;;;;;;;;27.30;80.10;;;26.40;51.56;100634.75;9881492;29;96655;-85
2023/08/14 08:52:21;;;;;;;;;;;27.50;80.40;;;26.68;50.93;100634.41;9866353;29;96719;-85
2023/08/14 08:57:25;;;;;;;;;;;27.70;79.90;;;26.90;47.94;100626.06;9879917;29;96744;-86
2023/08/14 09:02:28;;;;;;;;;;;28.00;72.70;;;27.13;46.85;100624.84;9865749;29;97630;-85
2023/08/14 09:07:33;;;;;;;;;;;28.10;74.00;;;27.28;45.47;100615.88;9898546;29;96509;-86
2023/08/14 09:12:36;;;;;;;;;;;28.30;73.90;;;27.52;45.53;100612.66;9879879;29;96719;-85
2023/08/14 09:17:40;;;;;;;;;;;28.50;71.80;;;27.70;46.05;100607.50;9890893;29;97539;-84
2023/08/14 09:22:44;;;;;;;;;;;28.70;72.70;;;27.95;45.80;100604.00;9894252;29;96754;-84
2023/08/14 09:27:48;;;;;;;;;;;29.00;71.70;;;28.21;44.23;100598.50;9892012;29;96691;-85
2023/08/14 09:32:51;;;;;;;;;;;29.20;69.20;;;28.43;41.99;100599.06;9889326;29;96734;-86
2023/08/14 09:37:55;;;;;;;;;;;29.40;69.50;;;28.62;43.33;100601.19;9869483;29;96685;-84
2023/08/14 09:43:00;;;;;;;;;;;29.60;69.20;;;28.84;42.97;100598.09;9866683;29;98368;-85
2023/08/14 09:48:04;;;;;;;;;;;29.80;67.80;;;28.97;41.63;100587.41;9883039;29;96744;-85
2023/08/14 09:53:08;;;;;;;;;;;30.00;67.80;;;29.11;43.36;100590.34;9901346;29;97494;-84
2023/08/14 09:58:12;;;;;;;;;;;30.10;68.40;;;29.24;41.65;100588.91;9885168;29;98181;-85
2023/08/14 10:03:16;;;;;;;;;;;30.30;66.20;;;29.36;41.93;100588.56;9898272;29;96709;-85
2023/08/14 10:08:20;;;;;;;;;;;30.40;65.20;;;29.51;41.46;100586.56;9872008;29;96761;-85
2023/08/14 10:13:25;;;;;;;;;;;30.50;66.20;;;29.61;41.10;100576.66;9865639;29;96817;-85
2023/08/14 10:18:29;;;;;;;;;;;30.60;65.60;;;29.46;39.62;100567.41;9884738;29;96737;-85
2023/08/14 10:23:34;;;;;;;;;;;30.60;63.50;;;29.57;40.29;100557.25;9887009;29;96593;-84
2023/08/14 10:28:38;;;;;;;;;;;30.60;64.00;;;29.70;40.19;100561.25;9867904;29;96865;-84
2023/08/14 10:33:41;;;;;;;;;;;30.80;63.40;;;29.79;41.52;100554.84;9883580;29;96783;-84
2023/08/14 10:38:46;;;;;;;;;;;30.90;64.10;;;30.17;40.15;100548.78;9882844;29;96691;-84
2023/08/14 10:43:50;;;;;;;;;;;31.30;63.00;;;30.41;37.54;100544.16;9880522;29;96837;-85
2023/08/14 10:48:54;;;;;;;;;;;31.50;59.60;;;30.72;37.74;100541.88;9877997;29;98249;-85
2023/08/14 10:54:14;;;;;;;;;;;31.80;60.00;;;30.98;36.90;100542.34;9873805;29;99105;-86
2023/08/14 10:59:22;;;;;;;;;;;32.00;59.50;;;31.04;36.53;100535.69;9872155;29;98183;-85
2023/08/14 11:04:27;;;;;;;;;;;32.10;59.10;;;31.22;36.77;100525.00;9879550;29;97432;-84
2023/08/14 11:09:34;;;;;;;;;;;32.20;58.60;;;31.29;35.73;100520.78;9888704;29;97388;-86
2023/08/14 11:14:40;;;;;;;;;;;32.30;56.60;;;31.29;35.92;100519.97;9866695;29;98962;-85
2023/08/14 11:19:43;;;;;;;;;;;32.40;57.90;;;31.38;36.07;100510.78;9880420;29;98167;-85
2023/08/14 11:24:47;;;;;;;;;;;32.30;57.20;;;31.45;36.73;100504.91;9884200;29;96630;-86
2023/08/14 11:29:52;;;;;;;;;;;32.40;57.70;;;31.43;35.65;100501.66;9884498;29;96623;-86
2023/08/14 11:35:00;;;;;;;;;;;32.40;57.10;;;31.36;35.42;100503.94;9880285;29;96825;-88
2023/08/14 11:40:06;;;;;;;;;;;32.40;56.70;;;31.22;34.13;100500.28;9874388;29;98460;-84
2023/08/14 11:45:10;;;;;;;;;;;32.30;56.20;;;31.22;34.93;100501.09;9869539;29;97460;-86
2023/08/14 11:50:15;;;;;;;;;;;32.20;55.50;;;31.36;35.48;100487.47;9873286;29;98736;-85
2023/08/14 11:55:19;;;;;;;;;;;32.40;57.00;;;31.21;35.20;100502.22;9870076;29;97432;-88
2023/08/14 12:00:22;;;;;;;;;;;32.20;56.00;;;31.38;35.06;100490.75;9872904;29;98092;-88
2023/08/14 12:05:35;;;;;;;;;;;32.40;56.00;;;31.58;34.24;100490.38;9874919;29;97316;-88
2023/08/14 12:10:39;;;;;;;;;;;32.50;55.20;;;31.63;34.30;100490.31;9886832;29;96643;-87
2023/08/14 12:15:46;;;;;;;;;;;32.60;55.40;;;31.51;34.11;100484.47;9912985;29;96702;-87
2023/08/14 12:20:58;;;;;;;;;;;32.60;55.00;;;31.57;35.14;100494.25;9894202;29;97530;-90
2023/08/14 12:26:07;;;;;;;;;;;32.60;55.30;;;31.63;34.70;100486.75;9879703;29;97300;-88
2023/08/14 12:31:11;;;;;;;;;;;32.70;54.70;;;31.71;34.55;100477.78;9878889;29;96775;-89
2023/08/14 12:36:15;;;;;;;;;;;32.80;55.30;;;31.84;34.86;100476.22;9866337;29;96681;-87
2023/08/14 12:41:18;;;;;;;;;;;32.90;55.50;;;31.85;35.23;100473.19;9880360;29;96879;-89
2023/08/14 12:46:22;;;;;;;;;;;32.90;55.30;;;31.89;34.15;100478.88;9878656;29;98862;-88
2023/08/14 12:51:26;;;;;;;;;;;33.00;55.00;;;31.98;34.54;100488.06;9898817;29;96554;-88
2023/08/14 12:56:30;;;;;;;;;;;33.10;55.00;;;32.00;35.19;100466.56;9881509;29;97341;-89
2023/08/14 13:01:34;;;;;;;;;;;33.00;54.90;;;32.03;33.36;100463.22;9878368;29;96684;-89
2023/08/14 13:06:37;;;;;;;;;;;33.20;54.30;;;32.09;34.25;100461.16;9884355;29;96662;-88
2023/08/14 13:11:41;;;;;;;;;;;33.20;53.90;;;32.35;33.87;100456.84;9886890;29;97025;-89
2023/08/14 13:16:44;;;;;;;;;;;33.50;54.20;;;32.66;33.86;100459.72;9887389;29;96652;-89
2023/08/14 13:21:48;;;;;;;;;;;33.90;53.70;;;32.55;32.10;100461.06;9892072;29;96711;-89
2023/08/14 13:26:52;;;;;;;;;;;34.20;52.20;;;32.50;31.16;100448.22;9907006;29;96645;-89
2023/08/14 13:31:55;;;;;;;;;;;34.40;51.10;;;32.71;33.12;100445.88;9875348;29;97531;-88
2023/08/14 13:36:58;;;;;;;;;;;34.60;51.80;;;32.80;32.13;100434.09;9909474;29;96588;-89
2023/08/14 13:42:02;;;;;;;;;;;34.60;51.10;;;33.00;32.16;100434.50;9890328;29;96996;-90
2023/08/14 13:47:06;;;;;;;;;;;34.60;51.20;;;32.98;31.73;100433.97;9886593;29;97913;-89
2023/08/14 13:52:09;;;;;;;;;;;34.30;51.30;;;33.00;30.31;100431.72;9890856;29;96730;-88
2023/08/14 13:57:13;;;;;;;;;;;34.20;50.90;;;32.74;31.11;100428.72;9902283;29;96712;-89
2023/08/14 14:02:16;;;;;;;;;;;33.90;50.70;;;32.50;31.50;100417.16;9864311;29;99439;-89
2023/08/14 14:07:20;;;;;;;;;;;33.60;50.80;;;32.38;31.70;100425.13;9859287;29;96624;-89
2023/08/14 14:12:29;;;;;;;;;;;33.50;51.00;;;32.57;32.31;100412.09;9904850;29;97409;-89
2023/08/14 14:17:32;;;;;;;;;;;33.70;51.20;;;32.66;31.32;100415.72;9895025;29;98174;-87
2023/08/14 14:22:36;;;;;;;;;;;34.00;50.50;;;32.69;31.37;100406.03;9887012;29;96654;-86
2023/08/14 14:27:40;;;;;;;;;;;34.30;50.10;;;32.94;30.06;100410.16;9885443;29;96652;-87
2023/08/14 14:32:43;;;;;;;;;;;34.70;49.70;;;33.25;30.48;100404.69;9877086;29;97780;-87
2023/08/14 14:37:47;;;;;;;;;;;35.30;50.30;;;33.79;30.19;100405.47;9886280;29;96654;-86
2023/08/14 14:42:51;;;;;;;;;;;36.00;49.30;;;34.19;29.23;100409.06;9884415;29;96737;-87
2023/08/14 14:47:55;;;;;;;;;;;36.50;48.70;;;34.55;28.63;100410.78;9879868;29;96718;-87
2023/08/14 14:52:58;;;;;;;;;;;36.90;48.30;;;34.91;28.49;100407.69;9882360;29;98338;-84
2023/08/14 14:58:02;;;;;;;;;;;37.10;47.90;;;35.01;27.72;100399.06;9895126;29;96640;-87
2023/08/14 15:03:05;;;;;;;;;;;37.30;47.30;;;35.48;28.38;100406.66;9883072;29;98019;-86
2023/08/14 15:08:09;;;;;;;;;;;37.60;46.50;;;35.81;28.05;100404.09;9883458;29;96692;-85
2023/08/14 15:13:12;;;;;;;;;;;37.80;47.00;;;36.19;26.86;100398.53;9896986;29;96789;-84
2023/08/14 15:18:16;;;;;;;;;;;38.10;46.90;;;36.62;25.57;100389.94;9898465;29;98412;-87
2023/08/14 15:23:19;;;;;;;;;;;38.40;46.30;;;36.57;25.14;100386.56;9898166;29;96686;-84
2023/08/14 15:28:24;;;;;;;;;;;38.50;45.80;;;36.71;24.76;100381.59;9898240;29;96696;-84
2023/08/14 15:33:28;;;;;;;;;;;38.60;45.90;;;36.66;25.55;100379.81;9896955;29;96730;-84
2023/08/14 15:38:31;;;;;;;;;;;38.50;45.70;;;36.61;25.78;100370.91;9900667;29;96668;-84
2023/08/14 15:43:35;;;;;;;;;;;38.40;45.70;;;36.52;25.26;100379.28;9882743;29;96650;-84
2023/08/14 15:48:40;;;;;;;;;;;38.20;44.00;;;36.25;26.46;100375.06;9869232;29;97933;-85
2023/08/14 15:53:43;;;;;;;;;;;37.90;44.90;;;36.06;26.57;100371.94;9898805;29;96777;-85
2023/08/14 15:58:46;;;;;;;;;;;37.70;45.40;;;35.72;26.54;100368.19;9897034;29;96669;-84
2023/08/14 16:03:50;;;;;;;;;;;37.40;45.50;;;35.58;27.12;100370.38;9877637;29;96789;-85
2023/08/14 16:08:55;;;;;;;;;;;37.10;45.70;;;35.47;27.86;100363.59;9895107;29;96685;-84
2023/08/14 16:13:58;;;;;;;;;;;37.00;45.70;;;35.37;28.02;100367.47;9876784;29;96703;-86
2023/08/14 16:19:02;;;;;;;;;;;36.80;46.10;;;35.16;27.31;100367.38;9898087;29;96604;-87
2023/08/14 16:24:05;;;;;;;;;;;36.60;46.20;;;35.18;28.91;100370.63;9881797;29;96654;-87
2023/08/14 16:29:10;;;;;;;;;;;36.50;46.90;;;35.19;28.42;100365.91;9896806;29;97443;-95
2023/08/14 16:34:14;;;;;;;;;;;36.50;46.50;;;35.06;28.04;100363.00;9866020;29;96706;-87
2023/08/14 16:39:18;;;;;;;;;;;36.30;47.40;;;34.86;28.66;100364.47;9881939;29;97569;-88
2023/08/14 16:44:21;;;;;;;;;;;36.10;47.10;;;34.49;29.47;100354.13;9882256;29;96735;-87
2023/08/14 16:49:26;;;;;;;;;;;35.80;47.50;;;34.18;30.12;100359.72;9881592;29;96684;-87
2023/08/14 16:54:29;;;;;;;;;;;35.40;47.80;;;33.74;30.81;100365.09;9881711;29;96691;-87
2023/08/14 16:59:33;;;;;;;;;;;34.90;48.30;;;33.05;32.07;100372.16;9883623;29;97463;-87
2023/08/14 17:04:36;;;;;;;;;;;34.30;48.80;;;32.41;32.81;100369.53;9879433;29;98031;-88
2023/08/14 17:09:39;;;;;;;;;;;33.60;49.60;;;31.74;34.56;100374.75;9862203;29;97591;-92
2023/08/14 17:14:44;;;;;;;;;;;33.00;50.50;;;31.20;37.05;100373.50;9868857;29;97351;-91
2023/08/14 17:19:47;;;;;;;;;;;32.30;53.10;;;30.63;39.12;100390.81;9886472;29;99169;-91
2023/08/14 17:24:53;;;;;;;;;;;31.60;55.00;;;29.97;41.25;100380.72;9888499;29;96741;-94
2023/08/14 17:29:57;;;;;;;;;;;30.90;56.90;;;29.43;41.84;100386.50;9850820;29;97057;-92
2023/08/14 17:35:01;;;;;;;;;;;30.20;57.60;;;28.86;43.30;100380.66;9882648;29;96784;-91
2023/08/14 17:40:06;;;;;;;;;;;29.60;58.70;;;28.30;44.48;100389.16;9851223;29;96951;-92
2023/08/14 17:45:10;;;;;;;;;;;29.20;60.30;;;27.86;45.98;100392.63;9877397;29;96736;-93
2023/08/14 17:50:13;;;;;;;;;;;28.80;61.00;;;27.46;46.48;100397.03;9875612;29;98138;-88
2023/08/14 17:55:17;;;;;;;;;;;28.40;61.70;;;26.97;47.87;100406.84;9877921;29;96797;-88
2023/08/14 18:00:20;;;;;;;;;;;28.00;61.90;;;26.73;49.91;100418.25;9869558;29;97132;-88
2023/08/14 18:05:24;;;;;;;;;;;27.60;64.60;;;26.33;49.70;100429.81;9882666;29;96739;-88
2023/08/14 18:10:27;;;;;;;;;;;27.30;62.10;;;26.07;51.47;100426.97;9887573;29;96768;-88
2023/08/14 18:15:30;;;;;;;;;;;27.00;64.00;;;25.81;52.60;100434.19;9886132;29;97006;-89
2023/08/14 18:20:34;;;;;;;;;;;26.70;66.80;;;25.53;52.45;100442.69;9894427;29;96711;-89
2023/08/14 18:25:39;;;;;;;;;;;26.40;67.00;;;25.21;53.48;100438.09;9868016;29;96866;-88
2023/08/14 18:30:42;;;;;;;;;;;26.10;67.10;;;25.10;54.74;100447.22;9898274;29;98582;-87
2023/08/14 18:35:46;;;;;;;;;;;25.90;67.70;;;24.98;56.40;100462.84;9878302;29;98671;-88
2023/08/14 18:40:50;;;;;;;;;;;25.80;69.00;;;24.82;56.22;100459.94;9881427;29;97111;-88
2023/08/14 18:45:54;;;;;;;;;;;25.60;68.30;;;24.71;56.37;100465.53;9881142;29;97498;-88
2023/08/14 18:50:58;;;;;;;;;;;25.50;68.10;;;24.52;58.14;100471.28;9867073;29;97242;-88
2023/08/14 18:56:01;;;;;;;;;;;25.40;70.00;;;24.30;59.79;100484.88;9886361;29;98339;-91
2023/08/14 19:01:05;;;;;;;;;;;25.10;71.20;;;24.12;60.33;100487.06;9891325;29;98175;-91
2023/08/14 19:06:08;;;;;;;;;;;24.90;70.90;;;23.94;60.46;100483.53;9864170;29;97618;-91
2023/08/14 19:11:11;;;;;;;;;;;24.80;71.60;;;23.77;61.88;100486.28;9894009;29;96644;-91
2023/08/14 19:16:15;;;;;;;;;;;24.60;73.00;;;23.62;62.60;100488.72;9895000;29;96724;-91
2023/08/14 19:21:22;;;;;;;;;;;24.40;74.00;;;23.43;62.26;100484.59;9896048;29;98246;-90
2023/08/14 19:26:26;;;;;;;;;;;24.30;72.20;;;23.33;62.79;100489.84;9848282;29;96554;-91
2023/08/14 19:31:30;;;;;;;;;;;24.20;74.10;;;23.17;64.06;100486.88;9857781;29;96627;-89
2023/08/14 19:36:34;;;;;;;;;;;24.00;74.70;;;23.05;63.86;100493.41;9883065;29;96799;-90
2023/08/14 19:41:38;;;;;;;;;;;23.90;73.10;;;22.96;64.39;100496.50;9884584;29;96693;-90
2023/08/14 19:46:41;;;;;;;;;;;23.80;74.50;;;22.77;65.01;100492.31;9881552;29;96684;-90
2023/08/14 19:51:45;;;;;;;;;;;23.70;75.00;;;22.64;65.18;100488.00;9890914;29;96865;-90
2023/08/14 19:56:48;;;;;;;;;;;23.60;74.20;;;22.52;66.87;100516.19;9868125;29;97825;-90
2023/08/14 20:01:51;;;;;;;;;;;23.40;74.90;;;22.34;68.09;100506.31;9861283;29;96753;-90
2023/08/14 20:06:58;;;;;;;;;;;23.20;78.30;;;22.15;68.14;100500.22;9862473;29;97531;-91
2023/08/14 20:12:02;;;;;;;;;;;23.10;77.30;;;22.15;68.30;100519.16;9884551;29;96600;-91
2023/08/14 20:17:07;;;;;;;;;;;23.10;78.90;;;22.02;68.91;100512.09;9877613;29;98887;-92
2023/08/14 20:22:11;;;;;;;;;;;22.90;79.40;;;21.84;69.83;100504.91;9865446;29;98032;-91
2023/08/14 20:27:14;;;;;;;;;;;22.80;79.10;;;21.77;70.18;100520.44;9880747;29;96767;-91
2023/08/14 20:32:19;;;;;;;;;;;22.60;77.60;;;21.67;70.61;100513.94;9882043;29;96777;-91
2023/08/14 20:37:22;;;;;;;;;;;22.50;80.50;;;21.57;70.69;100515.31;9883241;29;96751;-91
2023/08/14 20:42:26;;;;;;;;;;;22.50;81.30;;;21.50;71.47;100506.50;9902819;29;96486;-91
2023/08/14 20:47:29;;;;;;;;;;;22.40;81.10;;;21.46;71.18;100508.00;9868637;29;96630;-91
2023/08/14 20:52:33;;;;;;;;;;;22.40;80.80;;;21.44;71.86;100512.84;9886101;29;98023;-91
2023/08/14 20:57:36;;;;;;;;;;;22.40;81.00;;;21.36;71.20;100515.88;9882958;29;96642;-91
2023/08/14 21:02:40;;;;;;;;;;;22.30;80.80;;;21.29;71.92;100509.72;9858366;29;98326;-91
2023/08/14 21:07:43;;;;;;;;;;;22.20;82.20;;;21.20;72.05;100495.69;9848579;29;96805;-91
2023/08/14 21:12:47;;;;;;;;;;;22.20;81.40;;;21.21;72.35;100500.03;9865846;29;96569;-92
2023/08/14 21:17:50;;;;;;;;;;;22.20;82.50;;;21.22;72.32;100506.28;9877104;29;96792;-92
2023/08/14 21:22:53;;;;;;;;;;;22.20;80.90;;;21.15;72.76;100505.53;9880073;29;96672;-93
2023/08/14 21:27:58;;;;;;;;;;;22.10;82.90;;;21.13;72.78;100513.06;9880844;29;96744;-92
2023/08/14 21:33:02;;;;;;;;;;;22.00;81.90;;;21.07;73.21;100504.81;9864149;29;98007;-92
2023/08/14 21:38:05;;;;;;;;;;;22.00;83.30;;;21.05;72.89;100508.78;9899984;29;97155;-94
2023/08/14 21:43:09;;;;;;;;;;;22.00;82.80;;;20.97;73.87;100512.63;9903474;29;97864;-93
2023/08/14 21:48:12;;;;;;;;;;;21.90;83.50;;;20.82;74.58;100506.84;9886017;29;97568;-93
2023/08/14 21:53:18;;;;;;;;;;;21.80;83.30;;;20.78;75.22;100508.31;9871394;29;96570;-93
2023/08/14 21:58:22;;;;;;;;;;;21.70;85.80;;;20.70;75.70;100509.47;9889797;29;96987;-93
2023/08/14 22:03:25;;;;;;;;;;;21.60;84.50;;;20.64;76.54;100499.59;9903323;29;96577;-92
2023/08/14 22:08:29;;;;;;;;;;;21.50;84.70;;;20.61;76.51;100504.59;9876664;29;97435;-92
2023/08/14 22:13:34;;;;;;;;;;;21.50;85.40;;;20.49;77.40;100510.75;9864842;29;97391;-92
2023/08/14 22:18:37;;;;;;;;;;;21.40;86.60;;;20.35;77.77;100503.81;9872065;29;96912;-92
2023/08/14 22:23:41;;;;;;;;;;;21.30;87.60;;;20.28;78.64;100508.47;9872865;29;96633;-93
2023/08/14 22:28:45;;;;;;;;;;;21.20;88.60;;;20.18;79.40;100505.47;9886977;29;96654;-92
2023/08/14 22:33:48;;;;;;;;;;;21.10;87.10;;;20.11;80.00;100493.91;9882651;29;97928;-93
2023/08/14 22:38:52;;;;;;;;;;;21.10;90.20;;;20.09;80.93;100502.25;9873150;29;96822;-92
2023/08/14 22:43:55;;;;;;;;;;;21.00;90.00;;;20.04;81.52;100500.22;9902700;29;96674;-92
2023/08/14 22:48:59;;;;;;;;;;;21.00;90.30;;;20.01;80.94;100508.72;9887581;29;96717;-92
2023/08/14 22:54:03;;;;;;;;;;;20.90;90.40;;;19.92;82.30;100501.97;9906373;29;96683;-92
2023/08/14 22:59:06;;;;;;;;;;;20.80;90.70;;;19.82;82.33;100506.22;9923688;29;96451;-92
2023/08/14 23:04:09;;;;;;;;;;;20.70;90.80;;;19.73;82.89;100494.88;9881358;29;97693;-94